Terminal Aerodrome Forecast
Issued by NWS

Home | Current Version | Previous Version | Graphics & Text | Print | Product List | Glossary On
Versions: 1 2 3 4 5 6 7 8 9 10 11 12 13 14 15 16 17 18 19 20 21 22 23 24 25 26 27 28 29 30 31 32 33 34
000
FTUS43 KLOT 132200 AAC
TAFDPA
TAF AMD
KDPA 132211Z 1322/1418 09009KT 4SM -SHRA BR SCT006 OVC020
     FM132320 08010KT 1 1/2SM SHRA VCTS SCT007 OVC020CB
     FM132350 09010KT 4SM BR VCSH SCT006 OVC020
     FM140300 18012G18KT 4SM -SHRA OVC030
     FM140900 36018G26KT 4SM RA BR OVC009
     FM141500 35016G26KT 6SM -RA OVC015=

USA.gov is the U.S. government's official web portal to all federal, state and local government web resources and services.